Latest Weather Observations for Jandakot

IDW60901

Issued at 12:21 pm WST Sunday 1 March 2015 (issued every 10 minutes, with the page automatically refreshed every 10 minutes)

About weather observations | Map of Perth area stations | Latest observations for Perth area | Other Formats
Station Details ID: 009172 Name: JANDAKOT AERO Lat: -32.10 Lon: 115.88 Height: 30.0 m
Data from the previous 72 hours. | See also: Recent months at Jandakot
Date/Time
WST
Tmp

°C
App
Tmp
°C
Dew
Point
°C
Rel
Hum
%
Delta-T

°C
Wind Press
QNH
hPa
Press
MSL
hPa
Rain
since
9 am
mm
Dir
 
Spd
km/h
Gust
km/h
Spd
kts
Gust
kts
01/12:00pm 30.2 28.6 11.7 32 10.8 SSE 11 19 6 10 1009.8 1009.7 0.0
01/11:30am 29.3 28.7 13.6 38 9.4 NE 9 15 5 8 1010.4 1010.3 0.0
01/11:00am 28.1 27.7 13.0 39 8.9 NE 7 13 4 7 1011.2 1011.1 0.0
01/10:30am 27.5 25.8 12.6 39 8.7 ESE 13 24 7 13 1011.2 1011.1 0.0
01/10:00am 25.7 23.2 12.4 43 7.7 ESE 17 22 9 12 1011.4 1011.3 0.0
01/09:30am 24.6 21.4 12.0 45 7.2 ESE 20 26 11 14 1011.3 1011.2 0.0
01/09:00am 22.8 19.2 12.0 50 6.1 ESE 22 30 12 16 1011.5 1011.4 0.0
01/08:30am 21.1 17.5 11.8 55 5.2 ESE 22 32 12 17 1011.7 1011.6 0.0
01/08:00am 20.1 16.0 11.6 58 4.7 ESE 24 35 13 19 1011.8 1011.7 0.0
01/07:30am 19.1 15.8 11.5 61 4.2 ESE 20 28 11 15 1012.1 1011.9 0.0
01/07:00am 17.9 14.5 11.3 65 3.6 ESE 20 28 11 15 1012.1 1011.9 0.0
01/06:30am 17.0 13.6 11.1 68 3.2 ESE 20 30 11 16 1011.7 1011.5 0.0
01/05:30am 16.9 13.4 10.9 67 3.2 E 20 30 11 16 1011.5 1011.3 0.0
01/05:00am 16.7 14.2 10.9 68 3.1 ESE 15 24 8 13 1011.6 1011.4 0.0
01/04:30am 17.0 13.7 10.9 67 3.3 ESE 19 32 10 17 1011.5 1011.3 0.0
01/04:00am 17.4 12.7 10.7 65 3.6 E 26 37 14 20 1011.6 1011.4 0.0
01/03:30am 17.6 15.4 10.7 64 3.7 E 13 22 7 12 1011.9 1011.7 0.0
01/03:00am 18.0 13.7 10.6 62 4.0 ESE 24 32 13 17 1011.7 1011.5 0.0
01/02:30am 18.5 14.1 10.5 59 4.3 E 24 39 13 21 1011.9 1011.7 0.0
01/02:00am 19.1 15.1 10.4 57 4.7 E 22 39 12 21 1011.8 1011.6 0.0
01/01:30am 19.5 15.1 10.4 55 4.9 E 24 32 13 17 1012.0 1011.8 0.0
01/01:00am 20.0 15.6 10.4 54 5.2 E 24 35 13 19 1012.0 1011.8 0.0
01/12:30am 20.7 16.7 10.4 51 5.6 E 22 35 12 19 1012.1 1011.9 0.0
01/12:00am 21.5 17.1 10.3 49 6.1 ESE 24 39 13 21 1012.1 1011.9 0.0
 
Date/Time
WST
Tmp

°C
App
Tmp
°C
Dew
Point
°C
Rel
Hum
%
Delta-T

°C
Wind Press
QNH
hPa
Press
MSL
hPa
Rain
since
9 am
mm
Dir
 
Spd
km/h
Gust
km/h
Spd
kts
Gust
kts
28/11:30pm 21.5 17.9 9.8 47 6.3 ESE 19 26 10 14 1012.2 1012.0 0.0
28/11:00pm 18.2 17.1 13.2 72 2.8 SE 11 17 6 9 1012.5 1012.3 0.0
28/10:30pm 18.4 17.9 13.7 74 2.7 SE 9 13 5 7 1012.6 1012.4 0.0
28/10:00pm 19.5 19.0 13.9 70 3.2 S 9 11 5 6 1012.7 1012.5 0.0
28/09:30pm 20.2 19.1 14.2 68 3.5 S 13 15 7 8 1012.9 1012.7 0.0
28/09:00pm 20.8 20.2 14.5 67 3.7 S 11 15 6 8 1013.1 1012.9 0.0
28/08:30pm 21.4 20.9 14.8 66 3.9 S 11 15 6 8 1012.9 1012.7 0.0
28/08:00pm 22.0 20.4 14.9 64 4.2 SSW 17 22 9 12 1012.6 1012.4 0.0
28/07:30pm 22.1 20.6 15.4 65 4.0 SSW 17 20 9 11 1012.5 1012.3 0.0
28/07:00pm 22.7 20.7 15.0 61 4.6 SW 19 24 10 13 1012.3 1012.1 0.0
28/06:30pm 23.6 21.2 14.5 56 5.4 SW 20 28 11 15 1012.2 1012.0 0.0
28/06:00pm 25.2 22.2 13.8 49 6.7 SW 22 30 12 16 1012.1 1011.9 0.0
28/05:30pm 26.7 23.6 13.3 43 7.9 SW 22 30 12 16 1011.9 1011.7 0.0
28/05:00pm 26.9 22.5 12.9 42 8.2 SW 28 35 15 19 1012.0 1011.8 0.0
28/04:30pm 28.1 24.3 12.5 38 9.1 WSW 24 35 13 19 1012.3 1012.1 0.0
28/04:00pm 28.9 26.7 13.2 38 9.3 WSW 17 24 9 13 1012.6 1012.4 0.0
28/03:30pm 30.5 26.8 6.4 22 12.9 E 15 26 8 14 1012.9 1012.7 0.0
28/03:00pm 30.2 25.6 6.4 22 12.7 ESE 20 32 11 17 1013.3 1013.1 0.0
28/02:30pm 29.4 26.8 7.7 25 11.8 ENE 11 24 6 13 1013.8 1013.6 0.0
28/02:00pm 28.6 25.7 8.0 27 11.2 ESE 13 20 7 11 1014.0 1013.8 0.0
28/01:30pm 28.5 24.7 7.5 26 11.3 E 17 24 9 13 1014.6 1014.4 0.0
28/01:00pm 27.8 24.3 8.6 30 10.5 SE 17 28 9 15 1015.0 1014.8 0.0
28/12:30pm 27.6 24.2 9.3 31 10.1 ESE 17 28 9 15 1015.5 1015.4 0.0
28/12:00pm 26.9 22.6 9.3 33 9.7 ESE 22 33 12 18 1015.8 1015.7 0.0
28/11:30am 25.7 23.0 10.2 37 8.6 E 15 28 8 15 1016.2 1016.1 0.0
28/11:00am 25.2 21.7 10.2 38 8.3 E 19 30 10 16 1016.6 1016.5 0.0
28/10:30am 24.9 21.4 11.0 41 7.8 E 20 26 11 14 1016.8 1016.7 0.0
28/10:00am 24.2 20.5 11.4 44 7.2 E 22 32 12 17 1017.0 1016.9 0.0
28/09:30am 22.7 19.1 11.9 50 6.1 SE 22 30 12 16 1017.2 1017.1 0.0
28/09:00am 22.1 18.6 12.2 53 5.6 ESE 22 30 12 16 1017.1 1017.0 0.0
28/08:30am 21.0 17.1 12.1 56 5.0 ESE 24 33 13 18 1017.2 1017.1 0.0
28/08:00am 20.3 17.3 12.5 61 4.4 ESE 20 32 11 17 1017.2 1017.1 0.0
28/07:30am 19.4 16.3 12.2 63 4.0 ESE 20 33 11 18 1016.9 1016.8 0.0
28/07:00am 18.7 15.6 12.2 66 3.6 ESE 20 28 11 15 1016.6 1016.5 0.0
28/06:30am 17.6 15.4 12.2 70 3.0 ESE 15 22 8 12 1016.1 1016.0 0.0
28/06:00am 17.2 15.1 12.3 73 2.7 SE 15 20 8 11 1015.7 1015.6 0.0
28/05:30am 16.2 15.0 12.8 80 1.9 SE 11 15 6 8 1015.3 1015.1 0.0
28/05:00am 16.5 15.3 12.9 79 2.0 S 11 13 6 7 1015.1 1014.9 0.0
28/04:30am 17.2 16.0 12.9 76 2.4 S 11 15 6 8 1014.9 1014.7 0.0
28/04:00am 18.0 16.8 12.8 71 2.9 SSE 11 15 6 8 1014.8 1014.6 0.0
28/03:30am 18.3 16.3 12.8 70 3.1 SE 15 20 8 11 1014.5 1014.3 0.0
28/03:00am 18.8 16.4 12.7 67 3.4 SSE 17 24 9 13 1014.2 1014.0 0.0
28/02:30am 19.0 16.6 12.8 67 3.5 SSE 17 22 9 12 1014.1 1013.9 0.0
28/02:00am 18.7 17.0 12.6 67 3.4 SSE 13 17 7 9 1014.2 1014.0 0.0
28/01:30am 19.1 17.1 12.7 66 3.6 SSE 15 20 8 11 1014.0 1013.8 0.0
28/01:00am 18.4 16.9 13.1 71 3.0 S 13 17 7 9 1014.0 1013.8 0.0
28/12:30am 18.6 17.2 13.5 72 2.9 S 13 17 7 9 1013.8 1013.6 0.0
28/12:00am 18.8 17.6 13.9 73 2.8 S 13 15 7 8 1013.7 1013.5 0.0
 
Date/Time
WST
Tmp

°C
App
Tmp
°C
Dew
Point
°C
Rel
Hum
%
Delta-T

°C
Wind Press
QNH
hPa
Press
MSL
hPa
Rain
since
9 am
mm
Dir
 
Spd
km/h
Gust
km/h
Spd
kts
Gust
kts
27/11:30pm 19.3 17.9 14.5 74 2.8 S 15 20 8 11 1013.4 1013.2 0.0
27/11:00pm 19.6 18.4 15.0 75 2.7 S 15 22 8 12 1013.1 1012.9 0.0
27/10:30pm 20.0 19.0 15.6 76 2.6 S 15 20 8 11 1012.9 1012.7 0.0
27/10:00pm 19.6 20.0 16.3 81 2.0 S 9 11 5 6 1012.9 1012.7 0.0
27/09:30pm 20.4 20.8 16.2 77 2.5 SSW 9 11 5 6 1012.9 1012.7 0.0
27/09:00pm 20.8 20.4 16.1 74 2.8 SSW 13 20 7 11 1012.6 1012.4 0.0
27/08:30pm 21.1 19.9 16.1 73 3.0 SSW 17 24 9 13 1012.2 1012.0 0.0
27/08:00pm 21.3 19.5 16.0 72 3.2 SSW 20 32 11 17 1011.8 1011.6 0.0
27/07:30pm 21.5 19.2 15.7 69 3.5 SSW 22 32 12 17 1011.4 1011.2 0.0
27/07:00pm 21.8 19.2 15.8 68 3.6 SSW 24 35 13 19 1011.3 1011.1 0.0
27/06:30pm 22.4 19.2 15.2 63 4.3 SW 26 37 14 20 1011.1 1010.9 0.0
27/06:00pm 23.3 19.4 14.5 57 5.2 SW 28 37 15 20 1010.9 1010.7 0.0
27/05:30pm 24.1 20.2 14.5 55 5.7 SW 28 37 15 20 1010.8 1010.6 0.0
27/05:00pm 24.8 20.4 14.2 51 6.3 SW 30 41 16 22 1010.7 1010.5 0.0
27/04:30pm 25.2 20.8 13.0 46 7.1 SW 28 39 15 21 1010.4 1010.2 0.0
27/04:00pm 25.8 22.0 13.6 47 7.2 SSW 26 37 14 20 1010.3 1010.1 0.0
27/03:30pm 25.4 21.1 14.5 51 6.5 SW 30 41 16 22 1010.0 1009.8 0.0
27/03:00pm 25.4 20.8 14.7 51 6.4 SW 32 39 17 21 1010.1 1009.9 0.0
27/02:30pm 25.5 20.8 14.2 49 6.7 SW 32 46 17 25 1010.0 1009.8 0.0
27/02:00pm 25.6 20.9 14.2 49 6.8 SW 32 43 17 23 1009.9 1009.7 0.0
27/01:30pm 26.0 21.2 14.1 47 7.1 WSW 32 43 17 23 1010.0 1009.8 0.0
27/01:00pm 25.5 20.3 13.4 47 7.1 WSW 33 44 18 24 1010.0 1009.8 0.0
27/12:30pm 25.7 20.9 13.9 48 7.0 SW 32 43 17 23 1009.9 1009.7 0.0
27/12:00pm 25.6 22.0 14.2 49 6.8 SSW 26 39 14 21 1010.0 1009.8 0.0
27/11:30am 25.4 21.4 14.1 49 6.7 SW 28 39 15 21 1010.2 1010.0 0.0
27/11:00am 24.9 21.6 15.1 54 5.9 SW 26 35 14 19 1010.2 1010.0 0.0
27/10:30am 25.3 22.6 15.6 55 5.9 SW 24 37 13 20 1010.1 1009.9 0.0
27/10:00am 24.3 21.2 15.5 58 5.3 SW 26 33 14 18 1010.1 1009.9 0.0
27/09:30am 24.6 22.3 16.6 61 4.9 SW 24 35 13 19 1010.0 1009.8 0.0
27/09:00am 23.7 21.6 17.1 66 4.1 SW 24 35 13 19 1009.6 1009.4 0.0
27/08:30am 23.2 20.8 17.4 70 3.6 SW 26 33 14 18 1009.3 1009.1 0.0
27/08:00am 22.3 20.5 17.8 75 2.8 SW 24 35 13 19 1008.9 1008.7 0.0
27/07:30am 21.5 21.0 18.6 83 1.8 SW 19 32 10 17 1008.7 1008.5 0.0
27/07:00am 21.2 21.4 19.3 89 1.2 SW 17 30 9 16 1008.3 1008.1 0.0
27/06:30am 20.3 22.0 19.4 95 0.6 WSW 9 13 5 7 1007.9 1007.7 0.0
27/06:00am 20.2 21.9 19.4 95 0.5 SW 9 11 5 6 1007.5 1007.3 0.0
27/05:46am 20.3 22.5 19.5 95 0.5 SW 7 11 4 6 1007.5 1007.3 0.0
27/05:30am 20.4 21.8 19.5 95 0.6 SW 11 15 6 8 1007.3 1007.1 0.0
27/05:00am 20.3 21.0 19.7 96 0.4 SSW 15 20 8 11 1007.1 1006.9 0.0
27/04:30am 20.4 20.8 19.8 96 0.4 SW 17 24 9 13 1006.9 1006.7 0.0
27/04:00am 20.8 21.3 20.0 95 0.5 SW 17 24 9 13 1006.6 1006.4 0.0
27/03:46am 21.1 21.5 19.9 93 0.8 SW 17 22 9 12 1006.4 1006.2 0.0
27/03:30am 21.3 21.3 19.7 91 1.0 WSW 19 24 10 13 1006.2 1006.0 0.0
27/03:00am 21.8 21.5 19.5 87 1.5 SW 20 28 11 15 1006.0 1005.8 0.0
27/02:30am 22.0 21.4 19.7 87 1.5 WSW 22 28 12 15 1005.9 1005.7 0.0
27/02:00am 22.5 23.5 20.2 87 1.5 WSW 15 20 8 11 1005.9 1005.7 0.0
27/01:30am 22.8 23.1 20.5 87 1.5 WSW 19 24 10 13 1006.0 1005.8 0.0
27/01:00am 23.0 24.6 20.7 87 1.5 WNW 13 17 7 9 1006.1 1005.9 0.0
27/12:30am 22.3 23.9 20.0 87 1.5 N 11 13 6 7 1006.2 1006.0 0.0
27/12:28am 22.2 24.2 20.0 87 1.4 NNW 9 11 5 6 1006.2 1006.0 0.0
27/12:00am 22.0 24.0 20.0 88 1.3 NNW 9 11 5 6 1006.4 1006.2 0.0
 
Date/Time
WST
Tmp

°C
App
Tmp
°C
Dew
Point
°C
Rel
Hum
%
Delta-T

°C
Wind Press
QNH
hPa
Press
MSL
hPa
Rain
since
9 am
mm
Dir
 
Spd
km/h
Gust
km/h
Spd
kts
Gust
kts
26/11:30pm 22.4 24.5 20.1 87 1.5 NW 9 11 5 6 1006.3 1006.1 0.0
26/11:00pm 22.6 24.9 19.8 84 1.8 WNW 7 9 4 5 1006.3 1006.1 0.0
26/10:30pm 22.7 24.2 19.7 83 1.9 W 11 13 6 7 1006.5 1006.3 0.0
26/10:00pm 23.0 24.6 19.9 83 2.0 W 11 13 6 7 1006.7 1006.5 0.0
26/09:30pm 23.2 24.6 20.4 84 1.8 W 13 17 7 9 1006.9 1006.7 0.0
26/09:00pm 23.5 25.7 20.4 83 2.0 W 9 11 5 6 1006.7 1006.5 0.0
26/08:30pm 23.3 25.1 20.4 84 1.9 WSW 11 13 6 7 1006.5 1006.3 0.0
26/08:00pm 23.6 25.4 20.4 82 2.1 WSW 11 15 6 8 1006.3 1006.1 0.0
26/07:30pm 24.0 25.5 20.6 81 2.2 WSW 13 17 7 9 1005.7 1005.5 0.0
26/07:00pm 24.9 26.3 20.3 75 3.0 WSW 13 15 7 8 1005.3 1005.1 0.0
26/06:30pm 26.0 27.0 20.2 70 3.8 WSW 15 19 8 10 1005.2 1005.0 0.0
26/06:00pm 27.0 28.1 20.5 67 4.3 WSW 15 19 8 10 1005.1 1004.9 0.0
26/05:30pm 27.6 29.5 21.3 68 4.2 WNW 13 19 7 10 1005.1 1004.9 0.0
26/05:00pm 27.6 28.8 20.6 65 4.6 W 15 20 8 11 1005.1 1004.9 0.0
26/04:30pm 28.3 28.7 20.6 63 5.1 WSW 19 24 10 13 1005.2 1005.0 0.0
26/04:00pm 28.5 28.3 19.8 59 5.7 W 20 28 11 15 1005.1 1004.9 0.0
26/03:30pm 30.2 29.9 19.5 52 7.0 W 20 28 11 15 1005.0 1004.8 0.0
26/03:00pm 30.3 29.9 18.9 50 7.4 W 19 24 10 13 1004.9 1004.7 0.0
26/02:30pm 31.1 30.8 19.5 50 7.6 W 20 26 11 14 1005.2 1005.0 0.0
26/02:00pm 31.2 30.7 19.1 48 7.9 W 20 26 11 14 1005.2 1005.0 0.0
26/01:30pm 31.8 31.3 19.1 47 8.3 W 20 28 11 15 1005.5 1005.3 0.0
26/01:00pm 32.1 31.0 19.5 47 8.3 WNW 24 30 13 16 1005.6 1005.4 0.0
26/12:30pm 33.4 32.5 18.2 40 9.9 NW 20 28 11 15 1005.8 1005.6 0.0

Latest Capital City Observations: Canberra | Sydney | Melbourne | Brisbane | Adelaide | Perth | Hobart | Darwin

Other Formats:

Comma delimited format used in spreadsheet applications
http://www.bom.gov.au/fwo/IDW60901/IDW60901.94609.axf

JavaScript Object Notation format (JSON) in row-major order
http://www.bom.gov.au/fwo/IDW60901/IDW60901.94609.json